SAS64U ESSA-EBBR
Flight info
| Callsign | SAS64U |
|---|---|
| Flight time | N/A |
| Altitude | 38000 |
| Route | PETEV N872 ELPAX DCT ATRIB DCT TNO DCT ALS N872 LILSI Z310 WOODY |
| Aircraft | A20N/M-SDE3FGIJ1RWXY/ALB1 |
Departure
| Time | N/A |
|---|---|
| Airport | Stockholm-Arlanda Airport (ESSA) |
Arrival
| Time | 2026-05-05 21:21 |
|---|---|
| Airport | Brussels Airport (EBBR) |
| Time | Latitude | Longitude | Altitude | Speed | Heading |
|---|---|---|---|---|---|
| 2026-05-05 20:34 | 54.12451 | 8.23530 | 37931 ft | 416 kts | 224° |
| 2026-05-05 20:34 | 54.08248 | 8.16757 | 37934 ft | 416 kts | 224° |
| 2026-05-05 20:35 | 54.04069 | 8.10027 | 37931 ft | 416 kts | 224° |
| 2026-05-05 20:35 | 53.99865 | 8.03259 | 37934 ft | 416 kts | 224° |
| 2026-05-05 20:36 | 53.95662 | 7.96505 | 37913 ft | 417 kts | 224° |
| 2026-05-05 20:36 | 53.91436 | 7.89750 | 37915 ft | 417 kts | 224° |
| 2026-05-05 20:37 | 53.87191 | 7.83004 | 37925 ft | 418 kts | 224° |
| 2026-05-05 20:37 | 53.82942 | 7.76257 | 37926 ft | 418 kts | 224° |
| 2026-05-05 20:38 | 53.78720 | 7.69568 | 37927 ft | 418 kts | 224° |
| 2026-05-05 20:38 | 53.74467 | 7.62841 | 37909 ft | 419 kts | 223° |
| 2026-05-05 20:39 | 53.70201 | 7.56128 | 37906 ft | 420 kts | 223° |
| 2026-05-05 20:39 | 53.65914 | 7.49402 | 37912 ft | 420 kts | 223° |
| 2026-05-05 20:40 | 53.61627 | 7.42700 | 37917 ft | 421 kts | 223° |
| 2026-05-05 20:40 | 53.57326 | 7.35987 | 37916 ft | 421 kts | 223° |
| 2026-05-05 20:41 | 53.53052 | 7.29333 | 37920 ft | 422 kts | 223° |
| 2026-05-05 20:41 | 53.48711 | 7.22603 | 37917 ft | 422 kts | 223° |
| 2026-05-05 20:42 | 53.44415 | 7.15957 | 37914 ft | 423 kts | 223° |
| 2026-05-05 20:42 | 53.40075 | 7.09259 | 37943 ft | 424 kts | 223° |
| 2026-05-05 20:43 | 53.35726 | 7.02567 | 37943 ft | 425 kts | 223° |
| 2026-05-05 20:43 | 53.31608 | 6.95497 | 37940 ft | 425 kts | 229° |
| 2026-05-05 20:44 | 53.27714 | 6.88075 | 37937 ft | 425 kts | 229° |
| 2026-05-05 20:44 | 53.23811 | 6.80662 | 37945 ft | 425 kts | 229° |
| 2026-05-05 20:45 | 53.17939 | 6.69570 | 37958 ft | 425 kts | 228° |
| 2026-05-05 20:45 | 53.14039 | 6.62150 | 37972 ft | 424 kts | 229° |
| 2026-05-05 20:46 | 53.10219 | 6.54631 | 37939 ft | 429 kts | 230° |
| 2026-05-05 20:46 | 53.06994 | 6.48275 | 37929 ft | 435 kts | 229° |
| 2026-05-05 20:47 | 53.03047 | 6.40564 | 37919 ft | 441 kts | 229° |
| 2026-05-05 20:47 | 52.98402 | 6.31599 | 37915 ft | 432 kts | 229° |
| 2026-05-05 20:48 | 52.95141 | 6.25307 | 37923 ft | 428 kts | 229° |
| 2026-05-05 20:48 | 52.91274 | 6.17846 | 37923 ft | 427 kts | 229° |
| 2026-05-05 20:49 | 52.87393 | 6.10398 | 37920 ft | 427 kts | 229° |
| 2026-05-05 20:49 | 52.83507 | 6.02968 | 37929 ft | 428 kts | 229° |
| 2026-05-05 20:50 | 52.79594 | 5.95518 | 37927 ft | 429 kts | 229° |
| 2026-05-05 20:50 | 52.75679 | 5.88072 | 37929 ft | 430 kts | 229° |
| 2026-05-05 20:51 | 52.71753 | 5.80627 | 37933 ft | 430 kts | 229° |
| 2026-05-05 20:51 | 52.67819 | 5.73199 | 37935 ft | 430 kts | 229° |
| 2026-05-05 20:52 | 52.63882 | 5.65774 | 37937 ft | 430 kts | 229° |
| 2026-05-05 20:52 | 52.59962 | 5.58413 | 37923 ft | 431 kts | 228° |
| 2026-05-05 20:53 | 52.56003 | 5.51017 | 37924 ft | 431 kts | 228° |
| 2026-05-05 20:53 | 52.52034 | 5.43608 | 37931 ft | 432 kts | 228° |
| 2026-05-05 20:54 | 52.47854 | 5.36546 | 37930 ft | 431 kts | 217° |
| 2026-05-05 20:54 | 52.42610 | 5.31826 | 37926 ft | 432 kts | 202° |
| 2026-05-05 20:55 | 52.36983 | 5.28304 | 37916 ft | 433 kts | 201° |
| 2026-05-05 20:55 | 52.31347 | 5.24759 | 37915 ft | 434 kts | 202° |
| 2026-05-05 20:56 | 52.25753 | 5.21233 | 37915 ft | 433 kts | 202° |
| 2026-05-05 20:56 | 52.22976 | 5.19492 | 37920 ft | 421 kts | 202° |
| 2026-05-05 20:56 | 52.20284 | 5.17809 | 37922 ft | 409 kts | 202° |
| 2026-05-05 20:57 | 52.17627 | 5.16152 | 37921 ft | 398 kts | 202° |
| 2026-05-05 20:57 | 52.15100 | 5.14574 | 37741 ft | 392 kts | 201° |
| 2026-05-05 20:57 | 52.12572 | 5.12994 | 37459 ft | 387 kts | 201° |
| 2026-05-05 20:57 | 52.10069 | 5.11430 | 37183 ft | 381 kts | 201° |
| 2026-05-05 20:58 | 52.07616 | 5.09901 | 36912 ft | 375 kts | 201° |
| 2026-05-05 20:58 | 52.05193 | 5.08392 | 36628 ft | 370 kts | 201° |
| 2026-05-05 20:58 | 52.02778 | 5.06891 | 36134 ft | 370 kts | 200° |
| 2026-05-05 20:58 | 52.00374 | 5.05405 | 35880 ft | 373 kts | 200° |
| 2026-05-05 20:59 | 51.97894 | 5.03874 | 35624 ft | 389 kts | 200° |
| 2026-05-05 20:59 | 51.95313 | 5.02281 | 35375 ft | 404 kts | 200° |
| 2026-05-05 20:59 | 51.92647 | 5.00639 | 35125 ft | 417 kts | 199° |
| 2026-05-05 20:59 | 51.89904 | 4.98950 | 34877 ft | 424 kts | 199° |
| 2026-05-05 21:00 | 51.87140 | 4.97247 | 34629 ft | 426 kts | 199° |
| 2026-05-05 21:00 | 51.84371 | 4.95542 | 33848 ft | 429 kts | 199° |
| 2026-05-05 21:00 | 51.81555 | 4.93809 | 32581 ft | 437 kts | 199° |
| 2026-05-05 21:00 | 51.78692 | 4.92050 | 31353 ft | 443 kts | 199° |
| 2026-05-05 21:01 | 51.75796 | 4.90278 | 30164 ft | 448 kts | 199° |
| 2026-05-05 21:01 | 51.72867 | 4.88489 | 28843 ft | 452 kts | 200° |
| 2026-05-05 21:01 | 51.69957 | 4.86713 | 27540 ft | 453 kts | 199° |
| 2026-05-05 21:01 | 51.67039 | 4.84930 | 26284 ft | 444 kts | 199° |
| 2026-05-05 21:02 | 51.64188 | 4.83187 | 25124 ft | 435 kts | 200° |
| 2026-05-05 21:02 | 51.61378 | 4.81468 | 24024 ft | 427 kts | 202° |
| 2026-05-05 21:02 | 51.58769 | 4.79300 | 22881 ft | 418 kts | 214° |
| 2026-05-05 21:02 | 51.56543 | 4.76364 | 21788 ft | 410 kts | 226° |
| 2026-05-05 21:03 | 51.54814 | 4.72878 | 21501 ft | 387 kts | 237° |
| 2026-05-05 21:03 | 51.53429 | 4.69338 | 21369 ft | 362 kts | 237° |
| 2026-05-05 21:03 | 51.52121 | 4.66005 | 21009 ft | 347 kts | 236° |
| 2026-05-05 21:03 | 51.50835 | 4.62749 | 20630 ft | 343 kts | 236° |
| 2026-05-05 21:04 | 51.49560 | 4.59524 | 20243 ft | 341 kts | 237° |
| 2026-05-05 21:04 | 51.48297 | 4.56314 | 19827 ft | 340 kts | 236° |
| 2026-05-05 21:04 | 51.47045 | 4.53125 | 19508 ft | 335 kts | 235° |
| 2026-05-05 21:04 | 51.45812 | 4.49980 | 19161 ft | 332 kts | 235° |
| 2026-05-05 21:05 | 51.44584 | 4.46856 | 18784 ft | 330 kts | 236° |
| 2026-05-05 21:05 | 51.43364 | 4.43755 | 18393 ft | 329 kts | 236° |
| 2026-05-05 21:05 | 51.42149 | 4.40666 | 18016 ft | 326 kts | 236° |
| 2026-05-05 21:05 | 51.40822 | 4.37757 | 17602 ft | 322 kts | 225° |
| 2026-05-05 21:06 | 51.39076 | 4.35546 | 17131 ft | 319 kts | 207° |
| 2026-05-05 21:06 | 51.37080 | 4.33979 | 16641 ft | 321 kts | 204° |
| 2026-05-05 21:06 | 51.35063 | 4.32450 | 16189 ft | 321 kts | 205° |
| 2026-05-05 21:06 | 51.33044 | 4.30923 | 15750 ft | 321 kts | 204° |
| 2026-05-05 21:07 | 51.31026 | 4.29395 | 15344 ft | 322 kts | 204° |
| 2026-05-05 21:07 | 51.28998 | 4.27858 | 14926 ft | 322 kts | 204° |
| 2026-05-05 21:07 | 51.27003 | 4.26347 | 14540 ft | 322 kts | 204° |
| 2026-05-05 21:07 | 51.24975 | 4.24809 | 14122 ft | 323 kts | 204° |
| 2026-05-05 21:08 | 51.22944 | 4.23269 | 13724 ft | 323 kts | 204° |
| 2026-05-05 21:08 | 51.20917 | 4.21736 | 13331 ft | 322 kts | 204° |
| 2026-05-05 21:08 | 51.18901 | 4.20210 | 12960 ft | 320 kts | 204° |
| 2026-05-05 21:08 | 51.16902 | 4.18695 | 12617 ft | 317 kts | 204° |
| 2026-05-05 21:09 | 51.14919 | 4.17169 | 12242 ft | 316 kts | 205° |
| 2026-05-05 21:09 | 51.12957 | 4.15601 | 11862 ft | 315 kts | 206° |
| 2026-05-05 21:09 | 51.11013 | 4.14019 | 11511 ft | 313 kts | 206° |
| 2026-05-05 21:09 | 51.09092 | 4.12448 | 11027 ft | 308 kts | 207° |
| 2026-05-05 21:10 | 51.07202 | 4.10908 | 10485 ft | 303 kts | 206° |
| 2026-05-05 21:10 | 51.05328 | 4.09395 | 9919 ft | 301 kts | 207° |
| 2026-05-05 21:10 | 51.03471 | 4.07901 | 9317 ft | 298 kts | 206° |
| 2026-05-05 21:10 | 51.01629 | 4.06422 | 8694 ft | 295 kts | 206° |
| 2026-05-05 21:11 | 50.99798 | 4.04954 | 8102 ft | 293 kts | 206° |
| 2026-05-05 21:11 | 50.97998 | 4.03514 | 7892 ft | 287 kts | 206° |
| 2026-05-05 21:11 | 50.96209 | 4.02104 | 7887 ft | 289 kts | 203° |
| 2026-05-05 21:11 | 50.94277 | 4.01380 | 7889 ft | 286 kts | 179° |
| 2026-05-05 21:12 | 50.92327 | 4.01877 | 7852 ft | 286 kts | 158° |
| 2026-05-05 21:12 | 50.90642 | 4.03509 | 7422 ft | 283 kts | 133° |
| 2026-05-05 21:12 | 50.89391 | 4.05882 | 7068 ft | 280 kts | 125° |
| 2026-05-05 21:12 | 50.88199 | 4.08312 | 6706 ft | 280 kts | 125° |
| 2026-05-05 21:13 | 50.87017 | 4.10721 | 6432 ft | 275 kts | 126° |
| 2026-05-05 21:13 | 50.85840 | 4.13114 | 6068 ft | 275 kts | 126° |
| 2026-05-05 21:13 | 50.84685 | 4.15458 | 5747 ft | 273 kts | 126° |
| 2026-05-05 21:13 | 50.83503 | 4.17852 | 5356 ft | 273 kts | 126° |
| 2026-05-05 21:14 | 50.82357 | 4.20166 | 5107 ft | 268 kts | 126° |
| 2026-05-05 21:14 | 50.81215 | 4.22463 | 4755 ft | 267 kts | 125° |
| 2026-05-05 21:14 | 50.80067 | 4.24772 | 4422 ft | 266 kts | 124° |
| 2026-05-05 21:14 | 50.78923 | 4.27071 | 4060 ft | 265 kts | 124° |
| 2026-05-05 21:15 | 50.77792 | 4.29339 | 3831 ft | 259 kts | 124° |
| 2026-05-05 21:15 | 50.76690 | 4.31542 | 3679 ft | 251 kts | 124° |
| 2026-05-05 21:15 | 50.75626 | 4.33667 | 3567 ft | 242 kts | 124° |
| 2026-05-05 21:15 | 50.74604 | 4.35706 | 3467 ft | 232 kts | 123° |
| 2026-05-05 21:16 | 50.73644 | 4.37671 | 3345 ft | 219 kts | 117° |
| 2026-05-05 21:16 | 50.73225 | 4.39817 | 3252 ft | 197 kts | 85° |
| 2026-05-05 21:16 | 50.73554 | 4.41787 | 3144 ft | 182 kts | 58° |
| 2026-05-05 21:16 | 50.74420 | 4.43167 | 2948 ft | 175 kts | 31° |
| 2026-05-05 21:17 | 50.75545 | 4.43774 | 2714 ft | 166 kts | 18° |
| 2026-05-05 21:17 | 50.76619 | 4.44204 | 2516 ft | 152 kts | 18° |
| 2026-05-05 21:17 | 50.77598 | 4.44602 | 2350 ft | 140 kts | 19° |
| 2026-05-05 21:17 | 50.78521 | 4.44980 | 2201 ft | 135 kts | 18° |
| 2026-05-05 21:18 | 50.79420 | 4.45351 | 2092 ft | 133 kts | 17° |
| 2026-05-05 21:18 | 50.80314 | 4.45720 | 2037 ft | 133 kts | 18° |
| 2026-05-05 21:18 | 50.81205 | 4.46084 | 2010 ft | 131 kts | 17° |
| 2026-05-05 21:18 | 50.82092 | 4.46448 | 1952 ft | 133 kts | 18° |
| 2026-05-05 21:19 | 50.82978 | 4.46805 | 1587 ft | 130 kts | 19° |
| 2026-05-05 21:19 | 50.83856 | 4.47189 | 1226 ft | 131 kts | 16° |
| 2026-05-05 21:19 | 50.84720 | 4.47532 | 1050 ft | 130 kts | 18° |
| 2026-05-05 21:19 | 50.85603 | 4.47887 | 867 ft | 131 kts | 14° |
| 2026-05-05 21:20 | 50.86482 | 4.48243 | 680 ft | 132 kts | 15° |
| 2026-05-05 21:20 | 50.87377 | 4.48606 | 503 ft | 134 kts | 13° |
| 2026-05-05 21:20 | 50.88279 | 4.48972 | 322 ft | 134 kts | 14° |
| 2026-05-05 21:20 | 50.89187 | 4.49343 | 164 ft | 133 kts | 14° |
| 2026-05-05 21:21 | 50.90052 | 4.49692 | 134 ft | 129 kts | 15° |
| 2026-05-05 21:21 | 50.90542 | 4.49899 | 137 ft | 31 kts | 15° |
| 2026-05-05 21:21 | 50.90740 | 4.49933 | 131 ft | 30 kts | 353° |
| 2026-05-05 21:21 | 50.90866 | 4.49851 | 128 ft | 1 kts | 294° |
| 2026-05-05 21:23 | 50.90871 | 4.49835 | 128 ft | 3 kts | 294° |
| 2026-05-05 21:23 | 50.90885 | 4.49782 | 124 ft | 7 kts | 293° |
| 2026-05-05 21:23 | 50.90903 | 4.49712 | 123 ft | 0 kts | 289° |
| 2026-05-05 21:24 | 50.90903 | 4.49711 | 124 ft | 1 kts | 288° |
| 2026-05-05 21:24 | 50.90902 | 4.49696 | 123 ft | 2 kts | 265° |
| 2026-05-05 21:24 | 50.90899 | 4.49671 | 126 ft | 2 kts | 255° |
| 2026-05-05 21:24 | 50.90891 | 4.49652 | 124 ft | 2 kts | 221° |
| 2026-05-05 21:25 | 50.90874 | 4.49645 | 126 ft | 4 kts | 195° |
| 2026-05-05 21:25 | 50.90820 | 4.49623 | 131 ft | 9 kts | 194° |
| 2026-05-05 21:25 | 50.90757 | 4.49598 | 132 ft | 10 kts | 194° |
| 2026-05-05 21:25 | 50.90684 | 4.49569 | 132 ft | 12 kts | 194° |
| 2026-05-05 21:26 | 50.90599 | 4.49534 | 133 ft | 13 kts | 194° |
| 2026-05-05 21:26 | 50.90500 | 4.49495 | 133 ft | 16 kts | 194° |
| 2026-05-05 21:26 | 50.90385 | 4.49449 | 135 ft | 17 kts | 194° |
| 2026-05-05 21:26 | 50.90268 | 4.49404 | 138 ft | 18 kts | 193° |
| 2026-05-05 21:27 | 50.90144 | 4.49350 | 140 ft | 18 kts | 195° |
| 2026-05-05 21:27 | 50.90025 | 4.49300 | 143 ft | 16 kts | 194° |
| 2026-05-05 21:27 | 50.89962 | 4.49172 | 145 ft | 16 kts | 248° |
| 2026-05-05 21:27 | 50.89917 | 4.49009 | 147 ft | 16 kts | 243° |
| 2026-05-05 21:28 | 50.89950 | 4.48902 | 146 ft | 13 kts | 335° |
| 2026-05-05 21:28 | 50.89984 | 4.48879 | 146 ft | 0 kts | 337° |
| 2026-05-05 21:28 | 50.89986 | 4.48878 | 146 ft | 0 kts | 337° |
| 2026-05-05 21:29 | 50.89978 | 4.48883 | 146 ft | 2 kts | 314° |
| 2026-05-05 21:29 | 50.89967 | 4.48901 | 146 ft | 2 kts | 314° |
| 2026-05-05 21:29 | 50.89957 | 4.48918 | 146 ft | 1 kts | 314° |
| 2026-05-05 21:29 | 50.89970 | 4.48909 | 146 ft | 5 kts | 341° |
| 2026-05-05 21:30 | 50.89993 | 4.48893 | 146 ft | 0 kts | 334° |